Weather at Alpine Casparis Municipal Airport

Public forecast

Using degrees Fahrenheit for public forecast. Weather courtesy of forecast.io.

Current aviation weather report (METAR) for Alpine Casparis Municipal Airport

(retrieved 0 seconds ago)

Closest aviation forecast (TAF) to Alpine Casparis Municipal Airport

Closest forecast is Fort Stockton Pecos County Airport, 50.9 nm (94.3 km) NE.

2024/05/29 18:22 (retrieved 24 minutes ago)

TAF KFST 291720Z 2918/3018 12009KT P6SM SCT060 FM300000 14015KT P6SM FEW250